Time;durP1;ratioP1;P1;durP2;ratioP2;P2;SDS_P1;SDS_P2;PMS_P1;PMS_P2;Temp;Humidity;BMP_temperature;BMP_pressure;BME280_temperature;BME280_humidity;BME280_pressure;Samples;Min_cycle;Max_cycle;Signal;HPM_P1;HPM_P2
2023/01/14 00:00:09;;;;;;;2.38;0.70;;;;;;;;;;5042020;28;20029;-85
2023/01/14 00:02:34;;;;;;;2.95;0.57;;;;;;;;;;5059605;28;20516;-85
2023/01/14 00:05:00;;;;;;;1.88;0.70;;;;;;;;;;5059283;28;20033;-85
2023/01/14 00:07:25;;;;;;;1.77;0.50;;;;;;;;;;5041377;28;20669;-83
2023/01/14 00:09:51;;;;;;;2.38;0.45;;;;;;;;;;5059665;28;20033;-84
2023/01/14 00:12:19;;;;;;;3.88;0.70;;;;;;;;;;5059708;28;20033;-85
2023/01/14 00:14:45;;;;;;;3.90;0.65;;;;;;;;;;5059265;28;20037;-86
2023/01/14 00:17:10;;;;;;;2.40;0.55;;;;;;;;;;5059682;28;20527;-84
2023/01/14 00:19:37;;;;;;;4.50;0.60;;;;;;;;;;5041860;28;20040;-85
2023/01/14 00:22:03;;;;;;;1.77;0.57;;;;;;;;;;5041572;28;20051;-85
2023/01/14 00:24:28;;;;;;;2.88;0.55;;;;;;;;;;5059217;28;20041;-84
2023/01/14 00:26:56;;;;;;;2.33;0.77;;;;;;;;;;5040944;28;20037;-83
2023/01/14 00:29:27;;;;;;;2.80;0.50;;;;;;;;;;5040919;28;20063;-85
2023/01/14 00:31:58;;;;;;;0.88;0.40;;;;;;;;;;5058983;28;20115;-85
2023/01/14 00:34:26;;;;;;;2.85;0.50;;;;;;;;;;5040993;28;20116;-85
2023/01/14 00:36:52;;;;;;;2.63;0.60;;;;;;;;;;5058688;28;20037;-84
2023/01/14 00:39:20;;;;;;;3.35;0.70;;;;;;;;;;5042034;28;20033;-84
2023/01/14 00:41:45;;;;;;;1.33;0.40;;;;;;;;;;5058518;28;20535;-85
2023/01/14 00:44:11;;;;;;;2.78;0.50;;;;;;;;;;5040384;28;20037;-85
2023/01/14 00:46:39;;;;;;;1.83;0.50;;;;;;;;;;5040490;28;20574;-84
2023/01/14 00:49:07;;;;;;;1.85;0.45;;;;;;;;;;5058809;28;20036;-85
2023/01/14 00:51:33;;;;;;;2.28;0.50;;;;;;;;;;5058207;28;20037;-84
2023/01/14 00:54:00;;;;;;;3.05;0.60;;;;;;;;;;5058443;28;20029;-84
2023/01/14 00:56:26;;;;;;;1.58;0.50;;;;;;;;;;5040193;28;20521;-84
2023/01/14 00:58:52;;;;;;;2.08;0.32;;;;;;;;;;5057969;28;20055;-84
2023/01/14 01:01:19;;;;;;;2.47;0.43;;;;;;;;;;5040240;28;20086;-85
2023/01/14 01:03:50;;;;;;;0.68;0.40;;;;;;;;;;5040242;28;20529;-85
2023/01/14 01:06:18;;;;;;;1.17;0.32;;;;;;;;;;5039942;28;20044;-84
2023/01/14 01:08:44;;;;;;;4.32;0.60;;;;;;;;;;5058869;28;20098;-84
2023/01/14 01:11:13;;;;;;;4.13;0.60;;;;;;;;;;5040721;28;20401;-85
2023/01/14 01:13:39;;;;;;;2.15;0.50;;;;;;;;;;5040918;28;20071;-85
2023/01/14 01:16:10;;;;;;;3.75;0.68;;;;;;;;;;5040614;28;20059;-86
2023/01/14 01:18:36;;;;;;;2.97;0.60;;;;;;;;;;5094840;22;20626;-84
2023/01/14 01:21:15;;;;;;;2.28;0.75;;;;;;;;;;5094917;28;20105;-84
2023/01/14 01:23:42;;;;;;;3.58;0.80;;;;;;;;;;5111803;28;20050;-84
2023/01/14 01:26:15;;;;;;;2.88;0.63;;;;;;;;;;5108074;28;20064;-83
2023/01/14 01:28:41;;;;;;;1.40;0.50;;;;;;;;;;5101621;28;20071;-84
2023/01/14 01:31:10;;;;;;;3.55;0.75;;;;;;;;;;5080162;28;20024;-84
2023/01/14 01:33:36;;;;;;;1.92;0.63;;;;;;;;;;5079901;28;20516;-84
2023/01/14 01:36:04;;;;;;;2.53;0.70;;;;;;;;;;5096973;28;20064;-83
2023/01/14 01:38:30;;;;;;;4.75;0.80;;;;;;;;;;5079870;28;20622;-84
2023/01/14 01:40:57;;;;;;;2.65;0.60;;;;;;;;;;5098165;28;20028;-84
2023/01/14 01:43:26;;;;;;;1.30;0.43;;;;;;;;;;5081356;28;20036;-84
2023/01/14 01:45:52;;;;;;;4.00;0.60;;;;;;;;;;5099515;28;20361;-85
2023/01/14 01:48:25;;;;;;;1.70;0.60;;;;;;;;;;5080033;28;20074;-84
2023/01/14 01:51:17;;;;;;;2.13;0.50;;;;;;;;;;5072547;28;20031;-84
2023/01/14 01:53:48;;;;;;;4.10;0.63;;;;;;;;;;5061130;28;20044;-84
2023/01/14 01:56:26;;;;;;;3.28;0.70;;;;;;;;;;5062049;28;20043;-83
2023/01/14 01:58:53;;;;;;;3.05;0.52;;;;;;;;;;5065615;28;20036;-83
2023/01/14 02:01:19;;;;;;;3.35;0.65;;;;;;;;;;5067404;28;20033;-82
2023/01/14 02:03:48;;;;;;;2.13;0.43;;;;;;;;;;5086912;28;20041;-84
2023/01/14 02:06:14;;;;;;;5.70;0.65;;;;;;;;;;5068841;28;20033;-84
2023/01/14 02:08:45;;;;;;;2.83;1.00;;;;;;;;;;5069249;28;20058;-85
2023/01/14 02:11:32;;;;;;;5.82;0.73;;;;;;;;;;5068938;28;20263;-85
2023/01/14 02:14:39;;;;;;;1.17;0.40;;;;;;;;;;5069478;28;20044;-84
2023/01/14 02:17:12;;;;;;;0.90;0.50;;;;;;;;;;5054376;28;20111;-85
2023/01/14 02:20:05;;;;;;;5.28;0.57;;;;;;;;;;5070791;28;20043;-85
2023/01/14 02:22:56;;;;;;;2.92;0.80;;;;;;;;;;5054617;28;20060;-84
2023/01/14 02:26:00;;;;;;;5.13;0.52;;;;;;;;;;5054670;28;20416;-86
2023/01/14 02:28:53;;;;;;;0.90;0.30;;;;;;;;;;5072332;28;20070;-85
2023/01/14 02:31:35;;;;;;;3.17;0.70;;;;;;;;;;5059546;28;20032;-84
2023/01/14 02:34:10;;;;;;;3.55;0.70;;;;;;;;;;5058052;28;20032;-83
2023/01/14 02:36:50;;;;;;;1.25;0.32;;;;;;;;;;5057506;28;20032;-84
2023/01/14 02:39:32;;;;;;;2.60;0.55;;;;;;;;;;5070137;28;20032;-83
2023/01/14 02:44:56;;;;;;;1.75;0.50;;;;;;;;;;5063516;28;20032;-83
2023/01/14 02:47:24;;;;;;;4.32;0.50;;;;;;;;;;5064552;28;20029;-84
2023/01/14 02:49:53;;;;;;;2.80;0.50;;;;;;;;;;5047999;28;20040;-82
2023/01/14 02:52:19;;;;;;;3.03;0.75;;;;;;;;;;5067227;28;20028;-83
2023/01/14 02:54:52;;;;;;;4.88;0.85;;;;;;;;;;5067344;28;20115;-84
2023/01/14 02:57:32;;;;;;;4.97;0.77;;;;;;;;;;5067771;28;20040;-84
2023/01/14 03:00:22;;;;;;;6.80;0.60;;;;;;;;;;5068859;28;20032;-83
2023/01/14 03:03:09;;;;;;;4.85;0.95;;;;;;;;;;5051990;28;20039;-83
2023/01/14 03:05:47;;;;;;;1.98;0.50;;;;;;;;;;5068764;28;20040;-83
2023/01/14 03:08:37;;;;;;;3.40;0.70;;;;;;;;;;5069173;28;20064;-83
2023/01/14 03:11:07;;;;;;;4.45;0.63;;;;;;;;;;5052053;28;20033;-83
2023/01/14 03:13:57;;;;;;;2.65;0.80;;;;;;;;;;5069444;28;20037;-83
2023/01/14 03:16:42;;;;;;;3.90;0.60;;;;;;;;;;5069056;28;20028;-83
2023/01/14 03:19:10;;;;;;;3.08;0.70;;;;;;;;;;5069508;28;20393;-83
2023/01/14 03:21:48;;;;;;;2.85;0.60;;;;;;;;;;5070439;28;20051;-84
2023/01/14 03:24:24;;;;;;;1.25;0.40;;;;;;;;;;5054587;28;20039;-84
2023/01/14 03:26:54;;;;;;;4.15;0.65;;;;;;;;;;5071634;28;20056;-83
2023/01/14 03:29:34;;;;;;;5.35;0.80;;;;;;;;;;5071047;28;20021;-84
2023/01/14 03:32:11;;;;;;;2.20;0.55;;;;;;;;;;5073345;28;20066;-84
2023/01/14 03:34:45;;;;;;;1.80;0.47;;;;;;;;;;5053784;28;20060;-84
2023/01/14 03:37:13;;;;;;;3.35;0.75;;;;;;;;;;5053410;28;20040;-84
2023/01/14 03:39:41;;;;;;;3.70;0.60;;;;;;;;;;5088338;28;20445;-85
2023/01/14 03:42:18;;;;;;;4.20;0.68;;;;;;;;;;5087557;28;20032;-85
2023/01/14 03:44:46;;;;;;;2.00;0.70;;;;;;;;;;5087186;28;20055;-84
2023/01/14 03:47:12;;;;;;;2.75;0.65;;;;;;;;;;5060990;28;20094;-84
2023/01/14 03:49:38;;;;;;;4.63;0.90;;;;;;;;;;5074908;28;20465;-83
2023/01/14 03:52:20;;;;;;;3.70;0.73;;;;;;;;;;5074264;28;20032;-83
2023/01/14 03:54:51;;;;;;;5.95;1.92;;;;;;;;;;5085570;28;20056;-84
2023/01/14 03:57:32;;;;;;;6.80;3.17;;;;;;;;;;5084996;28;20503;-83
2023/01/14 04:00:07;;;;;;;3.35;0.70;;;;;;;;;;5085686;28;20033;-84
2023/01/14 04:02:38;;;;;;;2.60;0.90;;;;;;;;;;5086067;28;20064;-84
2023/01/14 04:05:04;;;;;;;3.65;0.73;;;;;;;;;;5068220;28;20047;-83
2023/01/14 04:07:31;;;;;;;2.17;0.60;;;;;;;;;;5085673;28;20459;-82
2023/01/14 04:09:56;;;;;;;2.80;0.75;;;;;;;;;;5086259;28;20020;-83
2023/01/14 04:12:22;;;;;;;2.47;1.30;;;;;;;;;;5085461;28;20485;-84
2023/01/14 04:17:33;;;;;;;2.45;1.00;;;;;;;;;;5067727;28;20036;-83
2023/01/14 04:19:58;;;;;;;3.53;1.50;;;;;;;;;;5086174;28;20041;-84
2023/01/14 04:22:24;;;;;;;3.80;1.95;;;;;;;;;;5069180;28;20373;-84
2023/01/14 04:24:49;;;;;;;4.25;1.50;;;;;;;;;;5086300;28;20028;-84
2023/01/14 04:27:15;;;;;;;6.40;2.83;;;;;;;;;;5068651;28;20036;-84
2023/01/14 04:29:40;;;;;;;4.63;2.10;;;;;;;;;;5086857;28;20050;-83
2023/01/14 04:32:05;;;;;;;3.67;1.70;;;;;;;;;;5069109;28;20028;-83
2023/01/14 04:34:31;;;;;;;5.53;2.08;;;;;;;;;;5070607;28;20043;-85
2023/01/14 04:36:56;;;;;;;6.20;2.00;;;;;;;;;;5083263;28;20060;-85
2023/01/14 04:39:22;;;;;;;2.22;0.70;;;;;;;;;;5083037;28;20037;-83
2023/01/14 04:44:31;;;;;;;2.40;0.70;;;;;;;;;;5076435;28;20075;-83
2023/01/14 04:46:57;;;;;;;1.98;0.80;;;;;;;;;;5075678;28;20094;-84
2023/01/14 04:49:22;;;;;;;3.03;1.10;;;;;;;;;;5075488;28;20401;-84
2023/01/14 04:51:48;;;;;;;5.95;1.40;;;;;;;;;;5075400;28;20032;-83
2023/01/14 04:54:13;;;;;;;2.83;0.80;;;;;;;;;;5074526;28;20032;-85
2023/01/14 04:56:39;;;;;;;4.07;1.10;;;;;;;;;;5056665;28;20405;-83
2023/01/14 04:59:04;;;;;;;5.38;2.15;;;;;;;;;;5074821;28;20028;-83
2023/01/14 05:01:30;;;;;;;3.47;1.55;;;;;;;;;;5074554;28;20113;-83
2023/01/14 05:03:58;;;;;;;4.72;2.30;;;;;;;;;;5074145;28;20032;-82
2023/01/14 05:06:25;;;;;;;4.22;1.38;;;;;;;;;;5055506;28;20117;-83
2023/01/14 05:08:51;;;;;;;2.80;0.50;;;;;;;;;;5054388;28;20400;-83
2023/01/14 05:11:16;;;;;;;2.97;0.80;;;;;;;;;;5087809;28;20060;-83
2023/01/14 05:13:42;;;;;;;2.45;1.80;;;;;;;;;;5083860;28;20023;-83
2023/01/14 05:16:07;;;;;;;4.22;1.20;;;;;;;;;;5084223;28;20468;-83
2023/01/14 05:18:33;;;;;;;4.25;1.20;;;;;;;;;;5067056;28;20040;-83
2023/01/14 05:20:58;;;;;;;4.22;0.70;;;;;;;;;;5084198;28;20059;-85
2023/01/14 05:23:23;;;;;;;4.78;1.42;;;;;;;;;;5066465;28;20043;-84
2023/01/14 05:25:50;;;;;;;1.90;0.70;;;;;;;;;;5084305;28;20032;-82
2023/01/14 05:28:17;;;;;;;3.33;1.05;;;;;;;;;;5067441;28;20024;-83
2023/01/14 05:30:43;;;;;;;5.32;1.60;;;;;;;;;;5067523;28;20047;-86
2023/01/14 05:33:09;;;;;;;3.03;1.10;;;;;;;;;;5087705;28;20052;-85
2023/01/14 05:35:35;;;;;;;4.97;1.50;;;;;;;;;;5074597;28;20032;-85
2023/01/14 05:38:00;;;;;;;1.50;0.80;;;;;;;;;;5082745;28;20041;-84
2023/01/14 05:40:26;;;;;;;5.50;0.90;;;;;;;;;;5062704;28;20058;-83
2023/01/14 05:45:48;;;;;;;3.90;0.90;;;;;;;;;;5081426;28;20092;-83
2023/01/14 05:48:15;;;;;;;1.95;0.80;;;;;;;;;;5063480;28;20047;-84
2023/01/14 05:50:40;;;;;;;2.35;0.70;;;;;;;;;;5083516;28;20039;-82
2023/01/14 05:53:07;;;;;;;1.73;0.82;;;;;;;;;;5082856;28;20392;-84
2023/01/14 05:55:34;;;;;;;2.38;0.90;;;;;;;;;;5079972;28;20048;-83
2023/01/14 05:58:01;;;;;;;2.40;1.08;;;;;;;;;;5062679;28;20035;-83
2023/01/14 06:08:27;;;;;;;3.00;1.30;;;;;;;;;;5079718;28;20037;-83
2023/01/14 06:10:53;;;;;;;1.88;1.08;;;;;;;;;;5078090;28;20096;-83
2023/01/14 06:13:21;;;;;;;3.08;1.00;;;;;;;;;;5061186;28;20538;-82
2023/01/14 06:15:46;;;;;;;1.85;0.77;;;;;;;;;;5077053;28;20044;-85
2023/01/14 06:18:21;;;;;;;3.30;1.10;;;;;;;;;;5076576;28;20032;-83
2023/01/14 06:20:47;;;;;;;4.53;1.85;;;;;;;;;;5076631;28;20115;-85
2023/01/14 06:23:16;;;;;;;1.80;1.00;;;;;;;;;;5078372;28;20027;-83
2023/01/14 06:25:46;;;;;;;2.90;1.00;;;;;;;;;;5080524;28;20096;-82
2023/01/14 06:28:12;;;;;;;1.67;0.50;;;;;;;;;;5090630;28;20050;-84
2023/01/14 06:30:38;;;;;;;1.75;0.50;;;;;;;;;;5087864;28;20051;-85
2023/01/14 06:33:03;;;;;;;4.60;0.85;;;;;;;;;;5087885;28;20028;-83
2023/01/14 06:35:29;;;;;;;9.27;0.80;;;;;;;;;;5088120;28;20097;-84
2023/01/14 06:37:54;;;;;;;2.22;1.02;;;;;;;;;;5091125;28;20229;-84
2023/01/14 06:40:20;;;;;;;1.88;0.80;;;;;;;;;;5060488;28;20044;-85
2023/01/14 06:42:45;;;;;;;2.63;1.10;;;;;;;;;;5066405;28;20060;-82
2023/01/14 06:45:11;;;;;;;4.15;1.27;;;;;;;;;;5097950;28;20514;-82
2023/01/14 06:47:37;;;;;;;5.75;2.80;;;;;;;;;;5081321;28;20093;-85
2023/01/14 06:50:05;;;;;;;4.15;2.08;;;;;;;;;;5101637;28;20128;-81
2023/01/14 06:52:30;;;;;;;6.07;3.03;;;;;;;;;;5101006;28;20036;-83
2023/01/14 06:54:58;;;;;;;3.88;2.25;;;;;;;;;;5099214;28;20036;-83
2023/01/14 06:57:24;;;;;;;3.50;2.10;;;;;;;;;;5101853;28;20028;-83
2023/01/14 06:59:50;;;;;;;2.92;1.17;;;;;;;;;;5109724;28;20500;-83
2023/01/14 07:02:16;;;;;;;3.67;1.25;;;;;;;;;;5090574;28;20040;-85
2023/01/14 07:04:43;;;;;;;3.20;1.30;;;;;;;;;;5108144;28;20307;-84
2023/01/14 07:07:09;;;;;;;3.97;1.10;;;;;;;;;;5090191;28;20035;-85
2023/01/14 07:09:34;;;;;;;1.13;0.60;;;;;;;;;;5106638;28;20028;-83
2023/01/14 07:12:00;;;;;;;2.45;1.02;;;;;;;;;;5088982;28;20085;-84
2023/01/14 07:14:25;;;;;;;4.28;1.20;;;;;;;;;;5106709;28;20043;-86
2023/01/14 07:16:51;;;;;;;1.83;0.80;;;;;;;;;;5107244;28;20036;-84
2023/01/14 07:19:16;;;;;;;2.90;1.10;;;;;;;;;;5129289;22;20032;-84
2023/01/14 07:21:41;;;;;;;3.30;1.25;;;;;;;;;;5099065;28;20059;-85
2023/01/14 07:24:07;;;;;;;2.08;0.90;;;;;;;;;;5077807;28;20441;-83
2023/01/14 07:26:32;;;;;;;2.53;0.90;;;;;;;;;;5078072;28;20122;-85
2023/01/14 07:28:58;;;;;;;3.53;1.00;;;;;;;;;;5095225;28;20036;-83
2023/01/14 07:31:24;;;;;;;3.20;1.08;;;;;;;;;;5059748;28;20683;-83
2023/01/14 07:33:50;;;;;;;2.22;0.98;;;;;;;;;;5084398;28;20101;-83
2023/01/14 07:36:15;;;;;;;3.15;1.00;;;;;;;;;;5086372;28;20102;-84
2023/01/14 07:38:41;;;;;;;2.20;1.00;;;;;;;;;;5061884;28;20035;-81
2023/01/14 07:41:17;;;;;;;2.50;1.42;;;;;;;;;;5096640;28;20040;-81
2023/01/14 07:43:43;;;;;;;5.20;1.65;;;;;;;;;;5098675;28;20038;-83
2023/01/14 07:46:09;;;;;;;3.95;1.20;;;;;;;;;;5099934;28;20091;-83
2023/01/14 07:48:34;;;;;;;3.03;1.20;;;;;;;;;;5100313;28;20049;-81
2023/01/14 07:51:02;;;;;;;2.17;1.17;;;;;;;;;;5099792;28;20518;-83
2023/01/14 07:53:28;;;;;;;3.83;1.35;;;;;;;;;;5082151;28;20062;-83
2023/01/14 07:55:54;;;;;;;3.17;0.90;;;;;;;;;;5095921;28;20492;-82
2023/01/14 07:58:21;;;;;;;2.83;1.05;;;;;;;;;;5096269;28;20032;-82
2023/01/14 08:00:47;;;;;;;1.60;1.00;;;;;;;;;;5097229;28;20032;-82
2023/01/14 08:03:13;;;;;;;2.88;1.30;;;;;;;;;;5096445;28;20038;-83
2023/01/14 08:05:38;;;;;;;1.60;1.05;;;;;;;;;;5096419;28;20091;-84
2023/01/14 08:08:04;;;;;;;4.10;1.80;;;;;;;;;;5095883;28;20063;-83
2023/01/14 08:10:29;;;;;;;4.47;1.90;;;;;;;;;;5096704;28;20488;-82
2023/01/14 08:12:55;;;;;;;3.95;1.98;;;;;;;;;;5099583;28;20024;-83
2023/01/14 08:15:20;;;;;;;2.17;1.40;;;;;;;;;;5098277;28;20036;-82
2023/01/14 08:17:46;;;;;;;2.40;1.10;;;;;;;;;;5097085;28;20067;-82
2023/01/14 08:20:12;;;;;;;4.63;1.65;;;;;;;;;;5096140;28;20046;-82
2023/01/14 08:22:38;;;;;;;5.47;2.20;;;;;;;;;;5095966;28;20373;-81
2023/01/14 08:25:04;;;;;;;3.47;2.30;;;;;;;;;;5077082;28;20039;-82
2023/01/14 08:27:30;;;;;;;6.72;3.45;;;;;;;;;;5097433;28;20400;-83
2023/01/14 08:29:56;;;;;;;3.13;1.80;;;;;;;;;;5096331;28;20484;-83
2023/01/14 08:32:22;;;;;;;3.50;1.40;;;;;;;;;;5078168;28;20158;-86
2023/01/14 08:34:48;;;;;;;5.13;1.52;;;;;;;;;;5096460;28;20040;-87
2023/01/14 08:37:13;;;;;;;5.63;2.83;;;;;;;;;;5080309;28;20035;-86
2023/01/14 08:39:39;;;;;;;4.85;2.45;;;;;;;;;;5080410;28;20127;-83
2023/01/14 08:42:04;;;;;;;3.53;1.60;;;;;;;;;;5078517;28;20057;-83
2023/01/14 08:44:31;;;;;;;4.00;1.80;;;;;;;;;;5094792;28;20085;-83
2023/01/14 08:46:57;;;;;;;2.95;1.40;;;;;;;;;;5097041;28;20462;-84
2023/01/14 08:49:22;;;;;;;1.90;1.00;;;;;;;;;;5096158;28;20431;-82
2023/01/14 08:51:49;;;;;;;2.42;1.10;;;;;;;;;;5078373;28;20054;-82
2023/01/14 08:54:14;;;;;;;1.70;0.90;;;;;;;;;;5096513;28;20036;-84
2023/01/14 08:56:40;;;;;;;2.60;1.02;;;;;;;;;;5096585;28;20039;-83
2023/01/14 08:59:05;;;;;;;3.08;1.23;;;;;;;;;;5096634;28;20082;-82
2023/01/14 09:01:31;;;;;;;4.55;1.33;;;;;;;;;;5096480;28;20030;-84
2023/01/14 09:04:00;;;;;;;2.42;1.00;;;;;;;;;;5096171;28;20114;-83
2023/01/14 09:06:26;;;;;;;1.90;1.00;;;;;;;;;;5078284;28;20028;-83
2023/01/14 09:17:12;;;;;;;2.58;1.30;;;;;;;;;;5097745;28;20028;-83
2023/01/14 09:19:49;;;;;;;1.15;0.80;;;;;;;;;;5095435;28;20187;-83
2023/01/14 09:22:24;;;;;;;1.95;1.00;;;;;;;;;;5096996;28;20380;-83
2023/01/14 09:24:50;;;;;;;2.80;0.90;;;;;;;;;;5095810;28;20032;-84
2023/01/14 09:27:17;;;;;;;2.13;1.20;;;;;;;;;;5095942;28;20035;-83
2023/01/14 09:29:42;;;;;;;3.03;1.02;;;;;;;;;;5096078;28;20028;-81
2023/01/14 09:32:10;;;;;;;3.67;1.10;;;;;;;;;;5096074;28;20032;-82
2023/01/14 09:34:41;;;;;;;2.28;1.20;;;;;;;;;;5094121;28;20040;-83
2023/01/14 09:37:08;;;;;;;3.55;1.50;;;;;;;;;;5096359;28;20099;-85
2023/01/14 09:39:33;;;;;;;1.67;1.05;;;;;;;;;;5095852;28;20081;-83
2023/01/14 09:42:04;;;;;;;4.25;1.20;;;;;;;;;;5095682;28;20505;-83
2023/01/14 09:44:30;;;;;;;1.55;0.90;;;;;;;;;;5095674;28;20040;-84
2023/01/14 09:46:56;;;;;;;2.45;0.80;;;;;;;;;;5095153;28;20396;-84
2023/01/14 09:49:24;;;;;;;5.45;1.80;;;;;;;;;;5077886;28;20028;-85
2023/01/14 09:52:13;;;;;;;3.97;1.63;;;;;;;;;;5095566;28;20060;-84
2023/01/14 09:55:05;;;;;;;4.10;1.60;;;;;;;;;;5069814;28;20087;-82
2023/01/14 09:57:33;;;;;;;5.40;2.42;;;;;;;;;;5076882;28;20044;-84
2023/01/14 10:00:05;;;;;;;6.55;2.90;;;;;;;;;;5093648;28;20062;-83
2023/01/14 10:02:50;;;;;;;4.78;1.50;;;;;;;;;;5095297;28;20032;-82
2023/01/14 10:05:28;;;;;;;7.28;2.22;;;;;;;;;;5095113;28;20042;-86
2023/01/14 10:08:01;;;;;;;4.32;1.80;;;;;;;;;;5075436;28;20071;-84
2023/01/14 10:10:31;;;;;;;4.95;2.10;;;;;;;;;;5076645;28;20056;-83
2023/01/14 10:13:02;;;;;;;5.07;2.10;;;;;;;;;;5077197;28;20029;-84
2023/01/14 10:15:42;;;;;;;6.57;2.50;;;;;;;;;;5076886;28;20112;-84
2023/01/14 10:18:30;;;;;;;3.13;1.60;;;;;;;;;;5059291;28;20036;-83
2023/01/14 10:20:59;;;;;;;3.03;1.15;;;;;;;;;;5080604;28;20039;-83
2023/01/14 10:23:39;;;;;;;3.30;1.85;;;;;;;;;;5062087;28;20036;-84
2023/01/14 10:26:12;;;;;;;3.58;1.92;;;;;;;;;;5080589;28;20520;-84
2023/01/14 10:28:38;;;;;;;1.80;1.20;;;;;;;;;;5062824;28;20040;-84
2023/01/14 10:31:04;;;;;;;2.58;1.30;;;;;;;;;;5061836;28;20036;-83
2023/01/14 10:33:29;;;;;;;5.88;2.00;;;;;;;;;;5080920;28;20032;-82
2023/01/14 10:36:02;;;;;;;3.20;1.60;;;;;;;;;;5062903;28;20031;-84
2023/01/14 10:38:29;;;;;;;3.20;1.20;;;;;;;;;;5079990;28;20040;-84
2023/01/14 10:41:05;;;;;;;2.08;0.90;;;;;;;;;;5080739;28;20037;-84
2023/01/14 10:43:32;;;;;;;3.00;1.60;;;;;;;;;;5080600;28;20052;-84
2023/01/14 10:45:58;;;;;;;3.65;1.50;;;;;;;;;;5062414;28;20050;-84
2023/01/14 10:48:25;;;;;;;3.00;1.13;;;;;;;;;;5061730;28;20495;-84
2023/01/14 10:50:52;;;;;;;2.45;1.00;;;;;;;;;;5062072;28;20402;-83
2023/01/14 10:53:24;;;;;;;3.42;1.30;;;;;;;;;;5062163;28;20044;-84
2023/01/14 10:55:54;;;;;;;2.10;1.00;;;;;;;;;;5061926;28;20036;-83
2023/01/14 10:58:36;;;;;;;1.92;0.90;;;;;;;;;;5062498;28;20074;-83
2023/01/14 11:01:06;;;;;;;2.22;1.05;;;;;;;;;;5062024;28;20043;-84
2023/01/14 11:03:35;;;;;;;1.17;0.80;;;;;;;;;;5080048;28;20531;-84
2023/01/14 11:06:12;;;;;;;2.92;1.10;;;;;;;;;;5080114;28;20064;-84
2023/01/14 11:08:49;;;;;;;2.35;1.00;;;;;;;;;;5079738;28;20222;-83
2023/01/14 11:11:37;;;;;;;1.27;0.80;;;;;;;;;;5063841;28;20032;-84
2023/01/14 11:14:18;;;;;;;1.45;0.80;;;;;;;;;;5080647;28;20032;-85
2023/01/14 11:16:43;;;;;;;0.90;0.63;;;;;;;;;;5081693;28;20028;-84
2023/01/14 11:19:11;;;;;;;0.60;0.50;;;;;;;;;;5080001;28;20024;-84
2023/01/14 11:21:46;;;;;;;2.42;0.90;;;;;;;;;;5079533;28;20087;-83
2023/01/14 11:24:12;;;;;;;1.67;0.93;;;;;;;;;;5080763;28;20400;-83
2023/01/14 11:26:39;;;;;;;2.28;1.20;;;;;;;;;;5080194;28;20040;-84
2023/01/14 11:29:24;;;;;;;3.67;1.30;;;;;;;;;;5081211;28;20039;-84
2023/01/14 11:31:53;;;;;;;3.10;1.35;;;;;;;;;;5082361;28;20033;-85
2023/01/14 11:34:22;;;;;;;1.92;1.20;;;;;;;;;;5082332;28;20036;-85
2023/01/14 11:36:48;;;;;;;3.53;1.10;;;;;;;;;;5082702;28;20088;-85
2023/01/14 11:39:19;;;;;;;1.75;1.17;;;;;;;;;;5082131;28;20685;-85
2023/01/14 11:41:45;;;;;;;3.88;1.00;;;;;;;;;;5082693;28;20096;-82
2023/01/14 11:44:10;;;;;;;2.05;1.10;;;;;;;;;;5080865;28;20075;-84
2023/01/14 11:46:41;;;;;;;1.77;0.80;;;;;;;;;;5079823;28;20037;-83
2023/01/14 11:49:21;;;;;;;1.73;0.93;;;;;;;;;;5079993;28;20044;-83
2023/01/14 11:52:01;;;;;;;3.17;1.75;;;;;;;;;;5078871;28;20028;-82
2023/01/14 11:54:40;;;;;;;7.18;2.65;;;;;;;;;;5079818;28;20040;-86
2023/01/14 11:57:15;;;;;;;2.60;1.20;;;;;;;;;;5079018;28;20052;-88
2023/01/14 11:59:42;;;;;;;73.55;3.75;;;;;;;;;;5078851;28;20077;-84
2023/01/14 12:02:22;;;;;;;2.08;1.10;;;;;;;;;;5078767;28;20024;-83
2023/01/14 12:04:57;;;;;;;1.25;0.70;;;;;;;;;;5080164;28;20533;-84
2023/01/14 12:07:34;;;;;;;2.42;0.90;;;;;;;;;;5079888;28;20032;-83
2023/01/14 12:10:25;;;;;;;3.08;1.10;;;;;;;;;;5079025;28;20680;-84
2023/01/14 12:18:56;;;;;;;1.60;0.82;;;;;;;;;;5079091;28;20056;-83
2023/01/14 12:21:34;;;;;;;1.08;0.70;;;;;;;;;;5078917;28;20037;-83
2023/01/14 12:24:10;;;;;;;10.32;4.30;;;;;;;;;;5077941;28;20040;-83
2023/01/14 12:26:39;;;;;;;2.65;1.40;;;;;;;;;;5061132;28;20086;-84
2023/01/14 12:29:09;;;;;;;1.90;1.20;;;;;;;;;;5078902;28;20045;-84
2023/01/14 12:31:44;;;;;;;4.03;1.60;;;;;;;;;;5078989;28;20051;-82
2023/01/14 12:34:39;;;;;;;1.80;1.10;;;;;;;;;;5060693;28;20089;-84
2023/01/14 12:37:13;;;;;;;2.75;1.20;;;;;;;;;;5078918;28;20523;-84
2023/01/14 12:45:53;;;;;;;1.63;0.95;;;;;;;;;;5060053;28;20147;-82
2023/01/14 12:48:21;;;;;;;2.42;0.77;;;;;;;;;;5078003;28;20045;-85
2023/01/14 12:50:52;;;;;;;1.48;0.90;;;;;;;;;;5060220;28;20140;-83
2023/01/14 12:53:26;;;;;;;1.88;1.05;;;;;;;;;;5076578;28;20061;-85
2023/01/14 12:55:52;;;;;;;;;;;;;;;;;;5077105;28;20485;-82
2023/01/14 12:58:21;;;;;;;1.73;0.80;;;;;;;;;;5060439;28;19916;-84
2023/01/14 13:00:54;;;;;;;1.80;0.88;;;;;;;;;;5078591;28;20047;-83
2023/01/14 13:03:29;;;;;;;1.83;0.77;;;;;;;;;;5078388;28;20044;-83
2023/01/14 13:05:55;;;;;;;0.98;0.60;;;;;;;;;;5060701;28;20162;-85
2023/01/14 13:08:32;;;;;;;1.33;0.68;;;;;;;;;;5077834;28;20059;-84
2023/01/14 13:11:03;;;;;;;2.65;1.00;;;;;;;;;;5078020;28;20040;-84
2023/01/14 13:13:31;;;;;;;2.50;1.10;;;;;;;;;;5076839;28;20044;-84
2023/01/14 13:15:58;;;;;;;2.03;0.80;;;;;;;;;;5077123;28;20504;-84
2023/01/14 13:18:36;;;;;;;1.85;1.00;;;;;;;;;;5076953;28;20041;-81
2023/01/14 13:21:04;;;;;;;6.38;1.65;;;;;;;;;;5060321;28;20131;-85
2023/01/14 13:23:36;;;;;;;2.30;1.27;;;;;;;;;;5073511;28;20032;-85
2023/01/14 13:26:02;;;;;;;3.22;1.42;;;;;;;;;;5073106;28;20538;-85
2023/01/14 13:28:28;;;;;;;3.63;1.58;;;;;;;;;;5055847;28;20032;-86
2023/01/14 13:31:15;;;;;;;2.40;1.20;;;;;;;;;;5074395;28;20420;-86
2023/01/14 13:33:40;;;;;;;3.17;1.10;;;;;;;;;;5074521;28;20045;-86
2023/01/14 13:36:06;;;;;;;1.77;0.95;;;;;;;;;;5074059;28;20158;-86
2023/01/14 13:38:33;;;;;;;3.65;1.00;;;;;;;;;;5073965;28;20036;-85
2023/01/14 13:41:08;;;;;;;2.25;0.93;;;;;;;;;;5056056;28;20041;-85
2023/01/14 13:43:45;;;;;;;1.70;0.98;;;;;;;;;;5074173;28;20040;-85
2023/01/14 13:46:32;;;;;;;2.22;1.17;;;;;;;;;;5074575;28;20051;-84
2023/01/14 13:49:01;;;;;;;2.03;1.15;;;;;;;;;;5074231;28;20189;-86
2023/01/14 13:51:38;;;;;;;1.85;1.00;;;;;;;;;;5073501;28;20032;-85
2023/01/14 13:54:16;;;;;;;1.98;1.00;;;;;;;;;;5075370;28;20032;-85
2023/01/14 13:56:45;;;;;;;2.00;1.20;;;;;;;;;;5077329;28;20063;-85
2023/01/14 13:59:26;;;;;;;1.70;0.90;;;;;;;;;;5077274;28;20033;-85
2023/01/14 14:01:51;;;;;;;2.55;1.08;;;;;;;;;;5077213;28;20036;-85
2023/01/14 14:04:54;;;;;;;1.83;1.02;;;;;;;;;;5077615;28;20028;-85
2023/01/14 14:07:44;;;;;;;2.78;0.88;;;;;;;;;;5078686;28;20051;-85
2023/01/14 14:10:16;;;;;;;5.10;1.10;;;;;;;;;;5061344;28;20039;-85
2023/01/14 14:15:39;;;;;;;1.77;1.00;;;;;;;;;;5077423;28;20167;-85
2023/01/14 14:18:11;;;;;;;1.45;0.90;;;;;;;;;;5060244;28;20116;-85
2023/01/14 14:20:43;;;;;;;1.05;0.80;;;;;;;;;;5077142;28;20048;-86
2023/01/14 14:23:37;;;;;;;1.95;0.90;;;;;;;;;;5059682;28;20056;-86
2023/01/14 14:26:18;;;;;;;2.55;1.10;;;;;;;;;;5077529;28;20041;-86
2023/01/14 14:28:48;;;;;;;3.30;0.80;;;;;;;;;;5059727;28;20036;-85
2023/01/14 14:31:16;;;;;;;2.08;0.85;;;;;;;;;;5078080;28;20028;-86
2023/01/14 14:33:43;;;;;;;1.45;0.98;;;;;;;;;;5060029;28;20525;-86
2023/01/14 14:36:27;;;;;;;1.35;0.93;;;;;;;;;;5077710;28;20530;-86
2023/01/14 14:38:57;;;;;;;;;;;;;;;;;;5078092;28;20025;-83
2023/01/14 14:41:36;;;;;;;3.10;1.27;;;;;;;;;;5077534;28;19959;-85
2023/01/14 14:44:09;;;;;;;1.92;0.98;;;;;;;;;;5059501;28;20056;-85
2023/01/14 14:46:34;;;;;;;2.17;1.00;;;;;;;;;;5077603;28;20040;-85
2023/01/14 14:49:17;;;;;;;2.17;1.02;;;;;;;;;;5076965;28;20036;-86
2023/01/14 14:51:44;;;;;;;2.95;1.10;;;;;;;;;;5060226;28;20564;-86
2023/01/14 14:54:23;;;;;;;2.47;1.27;;;;;;;;;;5075196;28;20029;-85
2023/01/14 14:56:48;;;;;;;2.17;1.13;;;;;;;;;;5057812;28;20666;-85
2023/01/14 14:59:14;;;;;;;1.55;1.00;;;;;;;;;;5058544;28;20040;-83
2023/01/14 15:01:39;;;;;;;1.58;0.95;;;;;;;;;;5075062;28;20040;-85
2023/01/14 15:04:07;;;;;;;1.75;1.00;;;;;;;;;;5057565;28;20392;-85
2023/01/14 15:06:34;;;;;;;1.52;0.90;;;;;;;;;;5076115;28;20036;-84
2023/01/14 15:09:03;;;;;;;3.28;1.30;;;;;;;;;;5059127;28;20423;-85
2023/01/14 15:11:46;;;;;;;1.70;0.90;;;;;;;;;;5076797;28;20042;-84
2023/01/14 15:14:32;;;;;;;2.63;1.40;;;;;;;;;;5074745;28;20067;-86
2023/01/14 15:16:59;;;;;;;2.33;0.90;;;;;;;;;;5076912;28;20036;-85
2023/01/14 15:19:30;;;;;;;3.20;1.58;;;;;;;;;;5076907;28;20040;-85
2023/01/14 15:22:02;;;;;;;1.85;1.02;;;;;;;;;;5076581;28;20036;-84
2023/01/14 15:24:31;;;;;;;2.08;1.00;;;;;;;;;;5074864;28;20111;-85
2023/01/14 15:27:00;;;;;;;3.17;1.60;;;;;;;;;;5075541;28;20047;-85
2023/01/14 15:29:28;;;;;;;1.92;1.02;;;;;;;;;;5057500;28;20497;-85
2023/01/14 15:31:54;;;;;;;2.40;1.45;;;;;;;;;;5076386;28;20416;-85
2023/01/14 15:34:26;;;;;;;2.28;1.20;;;;;;;;;;5075985;28;20033;-85
2023/01/14 15:37:02;;;;;;;2.80;1.40;;;;;;;;;;5077439;28;20571;-84
2023/01/14 15:39:27;;;;;;;2.92;1.20;;;;;;;;;;5076371;28;20032;-84
2023/01/14 15:42:01;;;;;;;5.28;1.35;;;;;;;;;;5076976;28;20039;-85
2023/01/14 15:44:36;;;;;;;2.58;1.35;;;;;;;;;;5076702;28;20033;-84